sensor_id;sensor_type;location;lat;lon;timestamp;pressure;altitude;pressure_sealevel;temperature;humidity
63306;BME280;50735;52.060;1.248;2023-03-03T00:00:26;102473.24;;;4.77;47.42
63306;BME280;50735;52.060;1.248;2023-03-03T00:02:53;102473.74;;;4.64;48.44
63306;BME280;50735;52.060;1.248;2023-03-03T00:05:21;102474.04;;;4.42;48.77
63306;BME280;50735;52.060;1.248;2023-03-03T00:07:47;102474.47;;;4.33;49.12
63306;BME280;50735;52.060;1.248;2023-03-03T00:10:14;102475.67;;;4.41;48.79
63306;BME280;50735;52.060;1.248;2023-03-03T00:12:45;102476.12;;;4.20;48.58
63306;BME280;50735;52.060;1.248;2023-03-03T00:15:16;102472.99;;;4.23;49.04
63306;BME280;50735;52.060;1.248;2023-03-03T00:17:43;102478.39;;;4.43;48.32
63306;BME280;50735;52.060;1.248;2023-03-03T00:20:30;102478.68;;;4.42;48.62
63306;BME280;50735;52.060;1.248;2023-03-03T00:23:12;102482.40;;;4.49;48.69
63306;BME280;50735;52.060;1.248;2023-03-03T00:25:42;102482.84;;;4.54;48.28
63306;BME280;50735;52.060;1.248;2023-03-03T00:28:20;102480.17;;;4.53;48.36
63306;BME280;50735;52.060;1.248;2023-03-03T00:30:48;102480.71;;;4.60;48.23
63306;BME280;50735;52.060;1.248;2023-03-03T00:33:23;102479.25;;;4.61;48.17
63306;BME280;50735;52.060;1.248;2023-03-03T00:35:51;102478.13;;;4.76;48.20
63306;BME280;50735;52.060;1.248;2023-03-03T00:38:18;102479.09;;;4.56;48.32
63306;BME280;50735;52.060;1.248;2023-03-03T00:40:46;102479.83;;;4.58;48.10
63306;BME280;50735;52.060;1.248;2023-03-03T00:43:18;102475.20;;;4.21;48.95
63306;BME280;50735;52.060;1.248;2023-03-03T00:45:46;102478.54;;;4.20;48.75
63306;BME280;50735;52.060;1.248;2023-03-03T00:48:23;102478.19;;;3.55;50.03
63306;BME280;50735;52.060;1.248;2023-03-03T00:50:50;102479.98;;;3.78;49.45
63306;BME280;50735;52.060;1.248;2023-03-03T00:53:19;102479.53;;;3.90;49.10
63306;BME280;50735;52.060;1.248;2023-03-03T00:55:47;102475.57;;;3.71;49.99
63306;BME280;50735;52.060;1.248;2023-03-03T00:58:15;102475.51;;;3.47;50.09
63306;BME280;50735;52.060;1.248;2023-03-03T01:00:41;102479.78;;;3.64;49.63
63306;BME280;50735;52.060;1.248;2023-03-03T01:03:12;102482.54;;;3.80;49.35
63306;BME280;50735;52.060;1.248;2023-03-03T01:05:40;102484.49;;;4.03;49.34
63306;BME280;50735;52.060;1.248;2023-03-03T01:08:07;102484.95;;;3.90;49.12
63306;BME280;50735;52.060;1.248;2023-03-03T01:10:37;102485.87;;;3.91;49.17
63306;BME280;50735;52.060;1.248;2023-03-03T01:13:06;102484.93;;;4.02;48.96
63306;BME280;50735;52.060;1.248;2023-03-03T01:15:33;102486.05;;;4.51;48.57
63306;BME280;50735;52.060;1.248;2023-03-03T01:18:00;102486.32;;;4.34;48.50
63306;BME280;50735;52.060;1.248;2023-03-03T01:20:27;102486.37;;;4.12;48.49
63306;BME280;50735;52.060;1.248;2023-03-03T01:22:54;102486.58;;;4.28;48.46
63306;BME280;50735;52.060;1.248;2023-03-03T01:25:20;102489.66;;;4.17;48.29
63306;BME280;50735;52.060;1.248;2023-03-03T01:27:47;102489.38;;;4.20;48.11
63306;BME280;50735;52.060;1.248;2023-03-03T01:30:15;102489.69;;;4.16;48.00
63306;BME280;50735;52.060;1.248;2023-03-03T01:32:42;102487.98;;;4.27;48.08
63306;BME280;50735;52.060;1.248;2023-03-03T01:35:09;102487.52;;;4.01;48.36
63306;BME280;50735;52.060;1.248;2023-03-03T01:37:35;102487.55;;;3.98;48.28
63306;BME280;50735;52.060;1.248;2023-03-03T01:40:04;102489.56;;;4.01;48.23
63306;BME280;50735;52.060;1.248;2023-03-03T01:42:31;102493.70;;;4.25;48.16
63306;BME280;50735;52.060;1.248;2023-03-03T01:45:17;102492.46;;;3.91;48.54
63306;BME280;50735;52.060;1.248;2023-03-03T01:47:49;102494.32;;;3.93;48.49
63306;BME280;50735;52.060;1.248;2023-03-03T01:50:25;102495.46;;;4.00;48.36
63306;BME280;50735;52.060;1.248;2023-03-03T01:52:54;102494.29;;;4.32;48.46
63306;BME280;50735;52.060;1.248;2023-03-03T01:55:23;102496.28;;;4.00;48.50
63306;BME280;50735;52.060;1.248;2023-03-03T01:57:57;102493.30;;;4.25;48.84
63306;BME280;50735;52.060;1.248;2023-03-03T02:00:26;102493.28;;;3.72;49.31
63306;BME280;50735;52.060;1.248;2023-03-03T02:02:53;102495.01;;;3.92;49.16
63306;BME280;50735;52.060;1.248;2023-03-03T02:05:21;102492.64;;;3.97;49.20
63306;BME280;50735;52.060;1.248;2023-03-03T02:07:48;102493.02;;;3.81;49.14
63306;BME280;50735;52.060;1.248;2023-03-03T02:10:16;102490.71;;;3.77;48.96
63306;BME280;50735;52.060;1.248;2023-03-03T02:12:48;102489.89;;;4.07;48.55
63306;BME280;50735;52.060;1.248;2023-03-03T02:15:18;102491.37;;;4.31;48.38
63306;BME280;50735;52.060;1.248;2023-03-03T02:17:47;102488.84;;;4.37;48.18
63306;BME280;50735;52.060;1.248;2023-03-03T02:20:20;102484.95;;;4.18;48.04
63306;BME280;50735;52.060;1.248;2023-03-03T02:22:54;102483.24;;;4.37;47.90
63306;BME280;50735;52.060;1.248;2023-03-03T02:25:30;102481.88;;;4.33;47.89
63306;BME280;50735;52.060;1.248;2023-03-03T02:27:59;102477.74;;;4.10;47.89
63306;BME280;50735;52.060;1.248;2023-03-03T02:30:26;102481.45;;;4.09;47.82
63306;BME280;50735;52.060;1.248;2023-03-03T02:32:53;102481.12;;;3.87;47.71
63306;BME280;50735;52.060;1.248;2023-03-03T02:35:27;102484.94;;;3.97;47.87
63306;BME280;50735;52.060;1.248;2023-03-03T02:38:01;102485.55;;;3.93;48.02
63306;BME280;50735;52.060;1.248;2023-03-03T02:40:33;102487.37;;;3.93;48.12
63306;BME280;50735;52.060;1.248;2023-03-03T02:43:04;102488.81;;;3.77;48.26
63306;BME280;50735;52.060;1.248;2023-03-03T02:45:32;102487.66;;;3.91;48.30
63306;BME280;50735;52.060;1.248;2023-03-03T02:47:58;102488.09;;;3.93;48.34
63306;BME280;50735;52.060;1.248;2023-03-03T02:50:25;102486.45;;;3.94;48.46
63306;BME280;50735;52.060;1.248;2023-03-03T02:52:51;102488.02;;;4.03;48.72
63306;BME280;50735;52.060;1.248;2023-03-03T02:55:18;102489.47;;;4.06;48.85
63306;BME280;50735;52.060;1.248;2023-03-03T02:57:46;102487.02;;;4.05;48.68
63306;BME280;50735;52.060;1.248;2023-03-03T03:00:13;102488.56;;;4.09;48.68
63306;BME280;50735;52.060;1.248;2023-03-03T03:02:40;102484.64;;;4.00;48.80
63306;BME280;50735;52.060;1.248;2023-03-03T03:05:07;102484.80;;;4.00;49.05
63306;BME280;50735;52.060;1.248;2023-03-03T03:07:34;102484.97;;;3.79;48.88
63306;BME280;50735;52.060;1.248;2023-03-03T03:10:02;102482.50;;;4.00;48.95
63306;BME280;50735;52.060;1.248;2023-03-03T03:12:29;102483.83;;;3.93;49.10
63306;BME280;50735;52.060;1.248;2023-03-03T03:14:56;102489.22;;;3.83;48.99
63306;BME280;50735;52.060;1.248;2023-03-03T03:17:23;102490.95;;;4.09;48.84
63306;BME280;50735;52.060;1.248;2023-03-03T03:19:50;102487.76;;;4.13;48.75
63306;BME280;50735;52.060;1.248;2023-03-03T03:22:16;102490.39;;;4.14;48.76
63306;BME280;50735;52.060;1.248;2023-03-03T03:24:43;102486.62;;;3.91;49.41
63306;BME280;50735;52.060;1.248;2023-03-03T03:27:09;102488.08;;;3.98;49.17
63306;BME280;50735;52.060;1.248;2023-03-03T03:29:36;102485.32;;;3.87;49.05
63306;BME280;50735;52.060;1.248;2023-03-03T03:32:03;102484.54;;;3.94;49.00
63306;BME280;50735;52.060;1.248;2023-03-03T03:34:30;102487.25;;;4.16;48.80
63306;BME280;50735;52.060;1.248;2023-03-03T03:36:57;102486.62;;;4.11;48.90
63306;BME280;50735;52.060;1.248;2023-03-03T03:39:24;102487.28;;;4.12;48.95
63306;BME280;50735;52.060;1.248;2023-03-03T03:41:51;102486.13;;;4.14;48.92
63306;BME280;50735;52.060;1.248;2023-03-03T03:44:17;102486.30;;;3.88;48.88
63306;BME280;50735;52.060;1.248;2023-03-03T03:46:44;102483.64;;;4.08;48.91
63306;BME280;50735;52.060;1.248;2023-03-03T03:49:11;102483.10;;;4.08;48.95
63306;BME280;50735;52.060;1.248;2023-03-03T03:51:37;102482.55;;;4.03;48.88
63306;BME280;50735;52.060;1.248;2023-03-03T03:54:04;102480.78;;;3.87;48.94
63306;BME280;50735;52.060;1.248;2023-03-03T03:56:31;102484.78;;;4.03;49.05
63306;BME280;50735;52.060;1.248;2023-03-03T03:58:57;102488.44;;;4.05;49.07
63306;BME280;50735;52.060;1.248;2023-03-03T04:01:24;102488.89;;;4.06;49.20
63306;BME280;50735;52.060;1.248;2023-03-03T04:03:52;102490.94;;;4.10;49.19
63306;BME280;50735;52.060;1.248;2023-03-03T04:06:19;102489.43;;;3.94;49.24
63306;BME280;50735;52.060;1.248;2023-03-03T04:08:45;102488.52;;;3.90;49.29
63306;BME280;50735;52.060;1.248;2023-03-03T04:11:12;102487.66;;;4.05;49.37
63306;BME280;50735;52.060;1.248;2023-03-03T04:13:39;102485.50;;;4.10;49.56
63306;BME280;50735;52.060;1.248;2023-03-03T04:16:06;102488.00;;;4.09;49.52
63306;BME280;50735;52.060;1.248;2023-03-03T04:18:32;102486.34;;;3.74;49.78
63306;BME280;50735;52.060;1.248;2023-03-03T04:20:59;102486.19;;;3.70;49.62
63306;BME280;50735;52.060;1.248;2023-03-03T04:23:25;102486.59;;;3.90;49.54
63306;BME280;50735;52.060;1.248;2023-03-03T04:25:52;102484.14;;;3.93;49.56
63306;BME280;50735;52.060;1.248;2023-03-03T04:28:19;102488.00;;;4.11;49.95
63306;BME280;50735;52.060;1.248;2023-03-03T04:30:45;102485.23;;;4.04;49.76
63306;BME280;50735;52.060;1.248;2023-03-03T04:33:12;102483.44;;;4.08;49.77
63306;BME280;50735;52.060;1.248;2023-03-03T04:35:39;102482.23;;;4.16;49.66
63306;BME280;50735;52.060;1.248;2023-03-03T04:38:06;102482.84;;;4.20;49.52
63306;BME280;50735;52.060;1.248;2023-03-03T04:40:32;102484.08;;;3.87;49.56
63306;BME280;50735;52.060;1.248;2023-03-03T04:42:59;102483.77;;;4.07;49.47
63306;BME280;50735;52.060;1.248;2023-03-03T04:45:25;102486.25;;;4.28;49.50
63306;BME280;50735;52.060;1.248;2023-03-03T04:47:52;102489.46;;;4.30;49.52
63306;BME280;50735;52.060;1.248;2023-03-03T04:50:19;102490.03;;;4.33;49.49
63306;BME280;50735;52.060;1.248;2023-03-03T04:52:45;102494.92;;;4.17;49.52
63306;BME280;50735;52.060;1.248;2023-03-03T04:55:12;102496.21;;;4.22;49.73
63306;BME280;50735;52.060;1.248;2023-03-03T04:57:39;102497.98;;;4.36;49.54
63306;BME280;50735;52.060;1.248;2023-03-03T05:00:06;102495.28;;;3.94;50.10
63306;BME280;50735;52.060;1.248;2023-03-03T05:02:34;102492.97;;;3.88;50.15
63306;BME280;50735;52.060;1.248;2023-03-03T05:05:01;102490.51;;;3.63;50.43
63306;BME280;50735;52.060;1.248;2023-03-03T05:07:27;102491.66;;;3.73;50.43
63306;BME280;50735;52.060;1.248;2023-03-03T05:09:54;102494.83;;;3.87;49.89
63306;BME280;50735;52.060;1.248;2023-03-03T05:12:21;102496.84;;;3.96;49.84
63306;BME280;50735;52.060;1.248;2023-03-03T05:14:48;102501.24;;;3.87;49.83
63306;BME280;50735;52.060;1.248;2023-03-03T05:17:15;102498.25;;;3.88;49.72
63306;BME280;50735;52.060;1.248;2023-03-03T05:19:42;102496.99;;;4.25;49.74
63306;BME280;50735;52.060;1.248;2023-03-03T05:22:08;102495.89;;;4.32;49.62
63306;BME280;50735;52.060;1.248;2023-03-03T05:24:35;102494.44;;;4.01;49.67
63306;BME280;50735;52.060;1.248;2023-03-03T05:27:02;102499.56;;;4.23;49.57
63306;BME280;50735;52.060;1.248;2023-03-03T05:29:30;102499.34;;;4.41;49.64
63306;BME280;50735;52.060;1.248;2023-03-03T05:31:57;102500.99;;;4.03;49.46
63306;BME280;50735;52.060;1.248;2023-03-03T05:34:24;102497.12;;;4.25;49.53
63306;BME280;50735;52.060;1.248;2023-03-03T05:36:50;102496.81;;;4.48;49.41
63306;BME280;50735;52.060;1.248;2023-03-03T05:39:17;102495.21;;;4.40;49.01
63306;BME280;50735;52.060;1.248;2023-03-03T05:41:44;102497.97;;;4.01;49.28
63306;BME280;50735;52.060;1.248;2023-03-03T05:44:10;102500.13;;;3.93;49.40
63306;BME280;50735;52.060;1.248;2023-03-03T05:46:37;102502.55;;;4.28;49.50
63306;BME280;50735;52.060;1.248;2023-03-03T05:49:04;102502.75;;;3.95;49.47
63306;BME280;50735;52.060;1.248;2023-03-03T05:51:31;102505.56;;;4.04;49.41
63306;BME280;50735;52.060;1.248;2023-03-03T05:53:57;102502.29;;;4.27;49.21
63306;BME280;50735;52.060;1.248;2023-03-03T05:56:24;102502.59;;;4.30;49.21
63306;BME280;50735;52.060;1.248;2023-03-03T05:58:51;102501.89;;;4.54;49.22
63306;BME280;50735;52.060;1.248;2023-03-03T06:01:18;102500.31;;;4.59;49.14
63306;BME280;50735;52.060;1.248;2023-03-03T06:03:45;102504.31;;;4.43;49.07
63306;BME280;50735;52.060;1.248;2023-03-03T06:06:12;102506.20;;;4.64;49.01
63306;BME280;50735;52.060;1.248;2023-03-03T06:08:39;102504.66;;;4.49;49.02
63306;BME280;50735;52.060;1.248;2023-03-03T06:11:05;102503.85;;;4.46;49.05
63306;BME280;50735;52.060;1.248;2023-03-03T06:13:32;102501.70;;;4.30;49.05
63306;BME280;50735;52.060;1.248;2023-03-03T06:15:59;102503.24;;;4.32;49.07
63306;BME280;50735;52.060;1.248;2023-03-03T06:18:26;102507.15;;;4.52;49.12
63306;BME280;50735;52.060;1.248;2023-03-03T06:20:53;102508.62;;;4.52;49.17
63306;BME280;50735;52.060;1.248;2023-03-03T06:23:21;102510.61;;;4.49;49.21
63306;BME280;50735;52.060;1.248;2023-03-03T06:25:48;102514.70;;;4.50;49.24
63306;BME280;50735;52.060;1.248;2023-03-03T06:28:15;102514.52;;;4.34;49.22
63306;BME280;50735;52.060;1.248;2023-03-03T06:30:41;102515.19;;;4.67;49.22
63306;BME280;50735;52.060;1.248;2023-03-03T06:33:08;102517.20;;;4.50;49.18
63306;BME280;50735;52.060;1.248;2023-03-03T06:35:36;102519.25;;;4.50;49.26
63306;BME280;50735;52.060;1.248;2023-03-03T06:38:02;102520.28;;;4.49;49.34
63306;BME280;50735;52.060;1.248;2023-03-03T06:40:29;102519.73;;;4.48;49.41
63306;BME280;50735;52.060;1.248;2023-03-03T06:42:57;102520.65;;;4.34;49.24
63306;BME280;50735;52.060;1.248;2023-03-03T06:45:23;102521.82;;;4.69;49.38
63306;BME280;50735;52.060;1.248;2023-03-03T06:47:50;102521.39;;;4.72;49.32
63306;BME280;50735;52.060;1.248;2023-03-03T06:50:19;102523.36;;;4.53;49.27
63306;BME280;50735;52.060;1.248;2023-03-03T06:52:46;102524.99;;;4.70;49.29
63306;BME280;50735;52.060;1.248;2023-03-03T06:55:17;102528.33;;;4.71;49.33
63306;BME280;50735;52.060;1.248;2023-03-03T06:57:47;102533.27;;;4.38;49.27
63306;BME280;50735;52.060;1.248;2023-03-03T07:00:17;102533.65;;;4.41;49.21
63306;BME280;50735;52.060;1.248;2023-03-03T07:02:44;102536.98;;;4.65;53.16
63306;BME280;50735;52.060;1.248;2023-03-03T07:05:14;102532.69;;;4.70;50.88
63306;BME280;50735;52.060;1.248;2023-03-03T07:07:42;102535.95;;;5.06;50.11
63306;BME280;50735;52.060;1.248;2023-03-03T07:10:18;102538.27;;;4.65;49.79
63306;BME280;50735;52.060;1.248;2023-03-03T07:12:46;102540.50;;;4.61;49.46
63306;BME280;50735;52.060;1.248;2023-03-03T07:15:16;102542.31;;;4.95;49.47
63306;BME280;50735;52.060;1.248;2023-03-03T07:17:45;102543.65;;;4.46;49.32
63306;BME280;50735;52.060;1.248;2023-03-03T07:20:18;102545.65;;;4.56;49.58
63306;BME280;50735;52.060;1.248;2023-03-03T07:22:45;102547.72;;;4.34;49.36
63306;BME280;50735;52.060;1.248;2023-03-03T07:25:20;102549.66;;;4.26;49.57
63306;BME280;50735;52.060;1.248;2023-03-03T07:27:51;102551.53;;;4.31;49.48
63306;BME280;50735;52.060;1.248;2023-03-03T07:30:24;102554.44;;;4.31;49.54
63306;BME280;50735;52.060;1.248;2023-03-03T07:32:52;102554.15;;;4.32;49.54
63306;BME280;50735;52.060;1.248;2023-03-03T07:35:28;102554.07;;;4.42;49.43
63306;BME280;50735;52.060;1.248;2023-03-03T07:37:59;102556.27;;;4.64;49.30
63306;BME280;50735;52.060;1.248;2023-03-03T07:40:34;102556.99;;;4.67;49.42
63306;BME280;50735;52.060;1.248;2023-03-03T07:43:24;102556.26;;;4.45;49.60
63306;BME280;50735;52.060;1.248;2023-03-03T07:45:54;102556.57;;;4.52;49.50
63306;BME280;50735;52.060;1.248;2023-03-03T07:48:24;102559.31;;;4.76;49.47
63306;BME280;50735;52.060;1.248;2023-03-03T07:50:51;102559.35;;;4.53;49.68
63306;BME280;50735;52.060;1.248;2023-03-03T07:53:25;102559.49;;;4.55;50.55
63306;BME280;50735;52.060;1.248;2023-03-03T07:55:52;102562.03;;;4.41;50.10
63306;BME280;50735;52.060;1.248;2023-03-03T07:58:21;102561.43;;;4.61;50.82
63306;BME280;50735;52.060;1.248;2023-03-03T08:01:57;102564.59;;;4.71;50.62
63306;BME280;50735;52.060;1.248;2023-03-03T08:04:28;102571.08;;;4.25;50.25
63306;BME280;50735;52.060;1.248;2023-03-03T08:07:01;102574.16;;;4.53;50.17
63306;BME280;50735;52.060;1.248;2023-03-03T08:09:36;102576.52;;;4.70;50.95
63306;BME280;50735;52.060;1.248;2023-03-03T08:12:49;102578.80;;;4.71;50.30
63306;BME280;50735;52.060;1.248;2023-03-03T08:15:20;102582.12;;;4.56;50.69
63306;BME280;50735;52.060;1.248;2023-03-03T08:17:48;102586.91;;;4.94;50.50
63306;BME280;50735;52.060;1.248;2023-03-03T08:20:50;102587.81;;;4.46;50.98
63306;BME280;50735;52.060;1.248;2023-03-03T08:23:18;102589.35;;;4.42;51.03
63306;BME280;50735;52.060;1.248;2023-03-03T08:25:47;102591.75;;;4.58;50.57
63306;BME280;50735;52.060;1.248;2023-03-03T08:28:15;102596.00;;;4.50;50.60
63306;BME280;50735;52.060;1.248;2023-03-03T08:30:43;102599.17;;;4.51;51.49
63306;BME280;50735;52.060;1.248;2023-03-03T08:33:10;102600.69;;;4.71;50.52
63306;BME280;50735;52.060;1.248;2023-03-03T08:35:37;102606.69;;;3.78;51.09
63306;BME280;50735;52.060;1.248;2023-03-03T08:38:04;102608.93;;;3.53;52.05
63306;BME280;50735;52.060;1.248;2023-03-03T08:40:32;102610.61;;;4.06;57.60
63306;BME280;50735;52.060;1.248;2023-03-03T08:42:59;102606.21;;;4.01;51.67
63306;BME280;50735;52.060;1.248;2023-03-03T08:45:27;102611.83;;;3.94;51.19
63306;BME280;50735;52.060;1.248;2023-03-03T08:48:02;102609.08;;;3.57;51.48
63306;BME280;50735;52.060;1.248;2023-03-03T08:50:29;102605.48;;;3.91;51.07
63306;BME280;50735;52.060;1.248;2023-03-03T08:52:56;102609.93;;;3.77;50.99
63306;BME280;50735;52.060;1.248;2023-03-03T08:55:23;102613.71;;;3.60;51.28
63306;BME280;50735;52.060;1.248;2023-03-03T08:57:50;102618.04;;;3.22;51.54
63306;BME280;50735;52.060;1.248;2023-03-03T09:00:17;102620.26;;;3.56;51.41
63306;BME280;50735;52.060;1.248;2023-03-03T09:02:44;102616.94;;;3.66;51.74
63306;BME280;50735;52.060;1.248;2023-03-03T09:05:11;102622.01;;;3.34;52.69
63306;BME280;50735;52.060;1.248;2023-03-03T09:07:40;102623.51;;;3.32;53.26
63306;BME280;50735;52.060;1.248;2023-03-03T09:10:09;102624.19;;;3.49;53.86
63306;BME280;50735;52.060;1.248;2023-03-03T09:12:39;102624.84;;;3.90;52.73
63306;BME280;50735;52.060;1.248;2023-03-03T09:15:16;102625.52;;;3.47;53.56
63306;BME280;50735;52.060;1.248;2023-03-03T09:17:44;102624.50;;;4.27;53.21
63306;BME280;50735;52.060;1.248;2023-03-03T09:20:23;102624.54;;;4.15;52.96
63306;BME280;50735;52.060;1.248;2023-03-03T09:22:50;102621.49;;;4.00;54.65
63306;BME280;50735;52.060;1.248;2023-03-03T09:25:22;102624.67;;;3.90;54.33
63306;BME280;50735;52.060;1.248;2023-03-03T09:27:53;102627.67;;;3.94;54.62
63306;BME280;50735;52.060;1.248;2023-03-03T09:30:35;102625.33;;;3.61;54.89
63306;BME280;50735;52.060;1.248;2023-03-03T09:33:19;102626.17;;;4.54;53.82
63306;BME280;50735;52.060;1.248;2023-03-03T09:35:51;102627.90;;;4.95;53.91
63306;BME280;50735;52.060;1.248;2023-03-03T09:38:25;102632.13;;;5.94;52.12
63306;BME280;50735;52.060;1.248;2023-03-03T09:41:04;102630.66;;;6.67;50.18
63306;BME280;50735;52.060;1.248;2023-03-03T09:43:41;102628.66;;;6.99;48.54
63306;BME280;50735;52.060;1.248;2023-03-03T09:46:17;102630.85;;;6.40;48.01
63306;BME280;50735;52.060;1.248;2023-03-03T09:49:00;102634.20;;;6.58;47.51
63306;BME280;50735;52.060;1.248;2023-03-03T09:51:40;102639.17;;;5.67;48.15
63306;BME280;50735;52.060;1.248;2023-03-03T09:54:18;102642.27;;;5.34;49.79
63306;BME280;50735;52.060;1.248;2023-03-03T09:56:51;102645.15;;;4.62;51.43
63306;BME280;50735;52.060;1.248;2023-03-03T09:59:31;102651.48;;;4.75;51.21
63306;BME280;50735;52.060;1.248;2023-03-03T10:02:18;102652.37;;;4.66;51.47
63306;BME280;50735;52.060;1.248;2023-03-03T10:04:59;102655.73;;;4.87;51.98
63306;BME280;50735;52.060;1.248;2023-03-03T10:07:37;102653.96;;;4.48;52.72
63306;BME280;50735;52.060;1.248;2023-03-03T10:10:16;102662.09;;;4.18;54.16
63306;BME280;50735;52.060;1.248;2023-03-03T10:12:58;102659.04;;;4.75;53.92
63306;BME280;50735;52.060;1.248;2023-03-03T10:15:35;102661.20;;;4.47;54.61
63306;BME280;50735;52.060;1.248;2023-03-03T10:18:12;102667.62;;;4.28;55.07
63306;BME280;50735;52.060;1.248;2023-03-03T10:20:57;102670.83;;;4.08;55.88
63306;BME280;50735;52.060;1.248;2023-03-03T10:23:40;102669.00;;;4.45;58.34
63306;BME280;50735;52.060;1.248;2023-03-03T10:26:17;102670.15;;;4.31;55.91
63306;BME280;50735;52.060;1.248;2023-03-03T10:29:01;102670.37;;;4.59;56.07
63306;BME280;50735;52.060;1.248;2023-03-03T10:31:44;102672.07;;;3.72;57.57
63306;BME280;50735;52.060;1.248;2023-03-03T10:34:25;102673.16;;;3.39;58.94
63306;BME280;50735;52.060;1.248;2023-03-03T10:36:58;102669.39;;;3.74;58.57
63306;BME280;50735;52.060;1.248;2023-03-03T10:39:44;102667.30;;;4.63;58.00
63306;BME280;50735;52.060;1.248;2023-03-03T10:42:26;102663.73;;;4.58;57.13
63306;BME280;50735;52.060;1.248;2023-03-03T10:45:06;102662.17;;;5.20;56.16
63306;BME280;50735;52.060;1.248;2023-03-03T10:47:54;102663.96;;;6.27;54.55
63306;BME280;50735;52.060;1.248;2023-03-03T10:50:30;102663.86;;;5.77;52.93
63306;BME280;50735;52.060;1.248;2023-03-03T10:53:13;102663.30;;;5.28;53.93
63306;BME280;50735;52.060;1.248;2023-03-03T10:55:50;102665.12;;;5.63;52.27
63306;BME280;50735;52.060;1.248;2023-03-03T10:58:34;102661.50;;;6.80;51.10
63306;BME280;50735;52.060;1.248;2023-03-03T11:01:11;102656.05;;;7.24;49.17
63306;BME280;50735;52.060;1.248;2023-03-03T11:03:52;102655.04;;;6.85;48.07
63306;BME280;50735;52.060;1.248;2023-03-03T11:06:27;102655.47;;;6.60;48.06
63306;BME280;50735;52.060;1.248;2023-03-03T11:09:03;102655.51;;;6.66;47.66
63306;BME280;50735;52.060;1.248;2023-03-03T11:11:39;102654.48;;;6.43;45.63
63306;BME280;50735;52.060;1.248;2023-03-03T11:14:12;102655.96;;;6.98;46.77
63306;BME280;50735;52.060;1.248;2023-03-03T11:16:51;102666.20;;;6.10;46.92
63306;BME280;50735;52.060;1.248;2023-03-03T11:19:31;102664.77;;;6.11;46.85
63306;BME280;50735;52.060;1.248;2023-03-03T11:22:12;102665.33;;;5.55;47.82
63306;BME280;50735;52.060;1.248;2023-03-03T11:24:52;102669.58;;;5.12;48.50
63306;BME280;50735;52.060;1.248;2023-03-03T11:27:38;102670.70;;;5.70;48.75
63306;BME280;50735;52.060;1.248;2023-03-03T11:30:23;102665.89;;;4.70;51.45
63306;BME280;50735;52.060;1.248;2023-03-03T11:33:00;102668.66;;;4.57;52.23
63306;BME280;50735;52.060;1.248;2023-03-03T11:35:34;102669.07;;;5.77;52.19
63306;BME280;50735;52.060;1.248;2023-03-03T11:38:16;102675.09;;;6.00;51.39
63306;BME280;50735;52.060;1.248;2023-03-03T11:40:50;102674.01;;;5.66;51.64
63306;BME280;50735;52.060;1.248;2023-03-03T11:43:24;102675.06;;;5.57;51.40
63306;BME280;50735;52.060;1.248;2023-03-03T11:45:55;102674.12;;;5.51;51.62
63306;BME280;50735;52.060;1.248;2023-03-03T11:48:32;102670.99;;;5.49;51.92
63306;BME280;50735;52.060;1.248;2023-03-03T11:51:04;102672.73;;;5.85;58.93
63306;BME280;50735;52.060;1.248;2023-03-03T11:53:39;102671.33;;;5.52;50.74
63306;BME280;50735;52.060;1.248;2023-03-03T11:56:18;102667.70;;;5.27;52.02
63306;BME280;50735;52.060;1.248;2023-03-03T11:58:57;102669.95;;;5.20;51.78
63306;BME280;50735;52.060;1.248;2023-03-03T12:01:31;102670.87;;;5.61;52.09
63306;BME280;50735;52.060;1.248;2023-03-03T12:04:02;102667.67;;;5.58;51.10
63306;BME280;50735;52.060;1.248;2023-03-03T12:06:39;102669.13;;;5.22;51.80
63306;BME280;50735;52.060;1.248;2023-03-03T12:09:20;102666.84;;;4.90;51.90
63306;BME280;50735;52.060;1.248;2023-03-03T12:11:51;102664.24;;;4.57;53.07
63306;BME280;50735;52.060;1.248;2023-03-03T12:14:31;102664.66;;;4.67;54.07
63306;BME280;50735;52.060;1.248;2023-03-03T12:17:05;102663.08;;;4.47;53.73
63306;BME280;50735;52.060;1.248;2023-03-03T12:19:48;102658.90;;;4.97;52.99
63306;BME280;50735;52.060;1.248;2023-03-03T12:22:28;102659.02;;;5.39;51.81
63306;BME280;50735;52.060;1.248;2023-03-03T12:25:08;102654.52;;;5.88;51.21
63306;BME280;50735;52.060;1.248;2023-03-03T12:27:47;102647.05;;;6.27;50.88
63306;BME280;50735;52.060;1.248;2023-03-03T12:30:25;102646.35;;;5.16;50.86
63306;BME280;50735;52.060;1.248;2023-03-03T12:33:09;102642.16;;;5.42;50.70
63306;BME280;50735;52.060;1.248;2023-03-03T12:35:42;102641.67;;;5.36;50.02
63306;BME280;50735;52.060;1.248;2023-03-03T12:38:22;102634.68;;;6.04;49.52
63306;BME280;50735;52.060;1.248;2023-03-03T12:40:58;102635.15;;;5.70;49.42
63306;BME280;50735;52.060;1.248;2023-03-03T12:43:38;102632.13;;;5.99;48.58
63306;BME280;50735;52.060;1.248;2023-03-03T12:46:18;102636.31;;;5.50;49.16
63306;BME280;50735;52.060;1.248;2023-03-03T12:48:47;102634.40;;;5.24;49.70
63306;BME280;50735;52.060;1.248;2023-03-03T12:51:21;102634.36;;;4.96;49.50
63306;BME280;50735;52.060;1.248;2023-03-03T12:54:13;102633.72;;;5.77;48.65
63306;BME280;50735;52.060;1.248;2023-03-03T12:56:46;102631.50;;;6.25;47.97
63306;BME280;50735;52.060;1.248;2023-03-03T12:59:19;102631.24;;;5.74;48.24
63306;BME280;50735;52.060;1.248;2023-03-03T13:01:58;102633.12;;;5.33;48.82
63306;BME280;50735;52.060;1.248;2023-03-03T13:04:33;102631.98;;;5.00;49.50
63306;BME280;50735;52.060;1.248;2023-03-03T13:07:05;102635.47;;;5.62;48.54
63306;BME280;50735;52.060;1.248;2023-03-03T13:09:54;102632.75;;;5.86;47.80
63306;BME280;50735;52.060;1.248;2023-03-03T13:12:31;102629.28;;;6.00;47.52
63306;BME280;50735;52.060;1.248;2023-03-03T13:15:06;102626.84;;;5.91;47.26
63306;BME280;50735;52.060;1.248;2023-03-03T13:17:38;102625.67;;;5.57;47.34
63306;BME280;50735;52.060;1.248;2023-03-03T13:20:18;102618.94;;;5.98;46.89
63306;BME280;50735;52.060;1.248;2023-03-03T13:22:51;102619.13;;;5.24;47.82